Time;durP1;ratioP1;P1;durP2;ratioP2;P2;SDS_P1;SDS_P2;PMS_P1;PMS_P2;Temp;Humidity;BMP_temperature;BMP_pressure;BME280_temperature;BME280_humidity;BME280_pressure;Samples;Min_cycle;Max_cycle;Signal;HPM_P1;HPM_P2
2024/02/07 00:00:48;;;;;;;5.43;3.13;;;7.80;74.30;;;;;;5023820;28;20209;-70
2024/02/07 00:03:14;;;;;;;5.70;2.90;;;7.80;74.30;;;;;;5026405;28;20575;-69
2024/02/07 00:05:40;;;;;;;5.67;2.63;;;7.80;74.50;;;;;;5030073;28;20650;-72
2024/02/07 00:08:05;;;;;;;5.30;2.23;;;7.80;74.50;;;;;;5029201;28;20272;-72
2024/02/07 00:10:32;;;;;;;9.17;2.93;;;7.80;74.50;;;;;;5026414;28;20216;-69
2024/02/07 00:12:58;;;;;;;3.50;2.40;;;7.80;74.50;;;;;;5024685;28;20463;-69
2024/02/07 00:15:23;;;;;;;4.27;2.13;;;7.80;74.50;;;;;;5031676;28;20891;-70
2024/02/07 00:17:49;;;;;;;4.00;2.43;;;7.80;74.60;;;;;;5030901;28;20470;-69
2024/02/07 00:20:15;;;;;;;5.00;2.30;;;7.80;74.50;;;;;;5034386;28;20232;-70
2024/02/07 00:22:40;;;;;;;3.93;2.50;;;7.80;74.50;;;;;;5035428;28;20272;-71
2024/02/07 00:25:07;;;;;;;3.70;2.43;;;7.80;74.50;;;;;;5027462;28;20684;-71
2024/02/07 00:27:33;;;;;;;5.73;3.30;;;7.80;74.60;;;;;;5033081;28;20221;-72
2024/02/07 00:29:59;;;;;;;4.37;2.13;;;7.80;74.60;;;;;;5031618;28;20424;-67
2024/02/07 00:32:25;;;;;;;6.07;3.30;;;7.70;74.80;;;;;;5024508;28;20797;-69
2024/02/07 00:34:51;;;;;;;4.70;2.67;;;7.70;74.90;;;;;;5025175;28;20436;-69
2024/02/07 00:37:17;;;;;;;5.90;2.70;;;7.70;74.90;;;;;;5034420;28;20216;-69
2024/02/07 00:39:44;;;;;;;7.40;2.63;;;7.70;74.90;;;;;;5035932;28;20426;-70
2024/02/07 00:42:10;;;;;;;3.90;2.47;;;7.60;74.90;;;;;;5026630;28;20240;-68
2024/02/07 00:44:37;;;;;;;3.73;2.60;;;7.60;74.90;;;;;;5022782;28;20427;-70
2024/02/07 00:47:02;;;;;;;5.60;2.53;;;7.60;75.10;;;;;;5030491;28;21073;-71
2024/02/07 00:49:28;;;;;;;5.67;2.70;;;7.60;75.10;;;;;;5030202;28;20428;-70
2024/02/07 00:51:54;;;;;;;5.47;2.80;;;7.60;75.10;;;;;;5022878;28;20551;-69
2024/02/07 00:54:21;;;;;;;4.97;2.17;;;7.60;75.10;;;;;;5024760;28;20220;-69
2024/02/07 00:56:46;;;;;;;5.03;2.50;;;7.60;75.10;;;;;;5030739;28;20238;-72
2024/02/07 00:59:12;;;;;;;5.17;2.40;;;7.60;75.10;;;;;;5031000;28;20504;-69
2024/02/07 01:01:39;;;;;;;5.37;2.20;;;7.60;75.20;;;;;;5019752;28;20213;-70
2024/02/07 01:04:04;;;;;;;7.53;2.73;;;7.60;75.20;;;;;;5030164;28;20200;-70
2024/02/07 01:06:30;;;;;;;5.60;2.30;;;7.60;75.20;;;;;;5026460;28;20423;-70
2024/02/07 01:08:56;;;;;;;7.10;3.00;;;7.60;75.40;;;;;;5030016;28;20221;-71
2024/02/07 01:11:21;;;;;;;7.50;3.20;;;7.60;75.40;;;;;;5020204;28;20464;-68
2024/02/07 01:13:47;;;;;;;5.53;3.07;;;7.60;75.20;;;;;;5026281;28;20221;-70
2024/02/07 01:16:13;;;;;;;5.77;3.00;;;7.60;75.40;;;;;;5032720;28;20208;-70
2024/02/07 01:18:39;;;;;;;6.60;2.63;;;7.60;75.40;;;;;;5033604;28;20424;-69
2024/02/07 01:21:08;;;;;;;6.30;2.50;;;7.60;75.20;;;;;;5028077;28;20507;-69
2024/02/07 01:23:34;;;;;;;6.70;2.60;;;7.60;75.40;;;;;;5030739;28;20254;-70
2024/02/07 01:26:01;;;;;;;4.90;2.97;;;7.60;75.40;;;;;;5030549;28;20431;-71
2024/02/07 01:28:27;;;;;;;7.13;3.40;;;7.60;75.50;;;;;;5029161;28;20424;-70
2024/02/07 01:30:53;;;;;;;5.20;2.83;;;7.70;75.50;;;;;;5022744;28;20459;-69
2024/02/07 01:33:19;;;;;;;5.37;3.57;;;7.70;75.40;;;;;;5026762;28;20475;-71
2024/02/07 01:35:46;;;;;;;5.47;2.93;;;7.60;75.50;;;;;;5030474;28;20192;-71
2024/02/07 01:38:17;;;;;;;5.53;2.87;;;7.70;75.70;;;;;;5036459;28;20424;-69
2024/02/07 01:40:46;;;;;;;5.60;2.93;;;7.60;75.80;;;;;;5028781;28;20587;-68
2024/02/07 01:43:12;;;;;;;7.73;3.33;;;7.60;75.80;;;;;;5032519;28;20443;-67
2024/02/07 01:45:39;;;;;;;6.60;2.93;;;7.60;75.90;;;;;;5032783;28;20428;-68
2024/02/07 01:48:06;;;;;;;8.90;4.00;;;7.60;75.90;;;;;;5031123;28;20424;-70
2024/02/07 01:50:35;;;;;;;7.37;3.00;;;7.70;75.90;;;;;;5033286;28;20447;-71
2024/02/07 01:53:03;;;;;;;3.20;1.97;;;7.70;75.80;;;;;;5027425;28;20576;-69
2024/02/07 01:55:31;;;;;;;5.10;3.10;;;7.70;75.80;;;;;;5034590;28;20920;-69
2024/02/07 01:57:58;;;;;;;6.90;3.23;;;7.70;75.80;;;;;;5034332;28;20427;-69
2024/02/07 02:00:24;;;;;;;7.30;3.10;;;7.80;75.80;;;;;;5026930;28;20496;-72
2024/02/07 02:02:52;;;;;;;9.63;3.23;;;7.80;75.50;;;;;;5030710;28;20424;-71
2024/02/07 02:05:17;;;;;;;5.93;3.10;;;7.80;75.50;;;;;;5032701;28;20518;-70
2024/02/07 02:07:44;;;;;;;5.10;2.80;;;7.80;75.50;;;;;;5032688;28;20939;-68
2024/02/07 02:10:11;;;;;;;5.30;2.87;;;7.80;75.50;;;;;;5030599;28;20264;-71
2024/02/07 02:12:37;;;;;;;6.10;2.60;;;7.80;75.80;;;;;;5030436;28;20468;-69
2024/02/07 02:15:07;;;;;;;7.80;3.17;;;7.90;75.50;;;;;;5032855;28;20435;-71
2024/02/07 02:17:32;;;;;;;6.70;2.73;;;7.90;75.50;;;;;;5032847;28;20436;-71
2024/02/07 02:19:58;;;;;;;4.90;1.80;;;7.90;75.50;;;;;;5031476;28;20843;-70
2024/02/07 02:22:56;;;;;;;8.10;2.77;;;7.90;75.80;;;;;;5029916;28;20185;-70
2024/02/07 02:25:36;;;;;;;4.93;3.00;;;7.90;75.80;;;;;;5028658;28;20217;-69
2024/02/07 02:28:23;;;;;;;6.27;2.67;;;8.00;75.70;;;;;;5032785;28;20411;-72
2024/02/07 02:30:53;;;;;;;5.03;2.60;;;8.00;75.70;;;;;;5027728;28;21196;-71
2024/02/07 02:33:22;;;;;;;10.70;3.13;;;8.00;75.50;;;;;;5031727;28;21177;-70
2024/02/07 02:35:49;;;;;;;9.00;3.00;;;8.10;75.50;;;;;;5031954;28;20432;-70
2024/02/07 02:38:15;;;;;;;7.17;2.33;;;8.00;75.70;;;;;;5032173;28;20415;-70
2024/02/07 02:40:43;;;;;;;6.90;3.00;;;8.10;75.70;;;;;;5029384;28;20452;-69
2024/02/07 02:43:10;;;;;;;4.37;2.90;;;8.10;75.70;;;;;;5032543;28;20426;-70
2024/02/07 02:45:36;;;;;;;4.90;2.70;;;8.10;75.80;;;;;;5031819;28;20415;-70
2024/02/07 02:48:02;;;;;;;4.13;2.80;;;8.10;75.70;;;;;;5031596;28;20798;-71
2024/02/07 02:50:29;;;;;;;8.70;3.00;;;8.10;75.80;;;;;;5028451;28;20533;-71
2024/02/07 02:52:55;;;;;;;4.50;2.77;;;8.10;75.80;;;;;;5031222;28;20503;-70
2024/02/07 02:55:21;;;;;;;6.40;2.93;;;8.10;75.80;;;;;;5031067;28;20416;-69
2024/02/07 02:57:48;;;;;;;6.53;3.00;;;8.10;75.90;;;;;;5031345;28;20783;-70
2024/02/07 03:00:14;;;;;;;7.83;2.50;;;8.10;75.90;;;;;;5027722;28;20945;-68
2024/02/07 03:02:43;;;;;;;5.03;2.13;;;8.10;76.10;;;;;;5030204;28;20829;-71
2024/02/07 03:08:05;;;;;;;4.60;2.70;;;8.20;75.80;;;;;;5031348;28;20419;-70
2024/02/07 03:10:33;;;;;;;6.13;3.07;;;8.30;75.80;;;;;;5026437;28;20479;-68
2024/02/07 03:13:00;;;;;;;3.43;2.30;;;8.30;75.90;;;;;;5029339;28;20478;-70
2024/02/07 03:15:26;;;;;;;4.83;2.57;;;8.30;75.90;;;;;;5031378;28;20428;-70
2024/02/07 03:17:52;;;;;;;4.50;2.00;;;8.30;75.80;;;;;;5031140;28;20804;-71
2024/02/07 03:20:18;;;;;;;5.83;2.60;;;8.30;75.90;;;;;;5026977;28;20444;-70
2024/02/07 03:22:43;;;;;;;6.67;3.10;;;8.40;75.80;;;;;;5029204;28;20209;-70
2024/02/07 03:25:16;;;;;;;4.60;2.07;;;8.30;75.80;;;;;;5029578;28;20668;-68
2024/02/07 03:27:44;;;;;;;6.43;2.77;;;8.40;75.80;;;;;;5031315;28;20185;-71
2024/02/07 03:30:15;;;;;;;5.70;2.97;;;8.40;75.70;;;;;;5028655;28;20426;-69
2024/02/07 03:32:41;;;;;;;4.30;2.77;;;8.40;75.50;;;;;;5029190;28;20518;-70
2024/02/07 03:35:07;;;;;;;5.77;2.80;;;8.40;75.50;;;;;;5031440;28;20427;-71
2024/02/07 03:37:33;;;;;;;5.93;3.13;;;8.50;75.40;;;;;;5033169;28;20486;-69
2024/02/07 03:39:59;;;;;;;6.90;2.70;;;8.50;75.40;;;;;;5031686;28;20447;-68
2024/02/07 03:42:24;;;;;;;4.00;2.60;;;8.50;75.40;;;;;;5029073;28;20439;-69
2024/02/07 03:45:03;;;;;;;4.63;2.90;;;8.50;75.40;;;;;;5031249;28;20707;-70
2024/02/07 03:47:32;;;;;;;6.63;3.00;;;8.50;75.20;;;;;;5030478;28;20617;-71
2024/02/07 03:49:58;;;;;;;5.60;2.57;;;8.50;75.40;;;;;;5030092;28;21294;-69
2024/02/07 03:52:24;;;;;;;7.53;3.17;;;8.40;75.50;;;;;;5031653;28;20490;-71
2024/02/07 03:54:49;;;;;;;8.73;3.30;;;8.40;75.50;;;;;;5034684;28;20177;-70
2024/02/07 03:57:19;;;;;;;9.27;3.57;;;8.40;75.70;;;;;;5035737;28;20188;-69
2024/02/07 03:59:45;;;;;;;7.63;2.53;;;8.40;75.90;;;;;;5033728;28;20189;-69
2024/02/07 04:02:21;;;;;;;6.63;2.87;;;8.50;75.70;;;;;;5026581;28;20914;-70
2024/02/07 04:04:49;;;;;;;8.67;2.60;;;8.50;75.50;;;;;;5028274;28;20501;-70
2024/02/07 04:07:18;;;;;;;8.10;2.93;;;8.50;75.50;;;;;;5031780;28;20420;-70
2024/02/07 04:09:45;;;;;;;7.23;2.63;;;8.50;75.40;;;;;;5030798;28;20426;-68
2024/02/07 05:17:18;;;;;;;5.23;2.37;;;8.90;74.90;;;;;;5033378;28;20786;-71
2024/02/07 05:19:45;;;;;;;6.43;2.80;;;9.00;74.80;;;;;;5033691;28;20913;-70
2024/02/07 05:22:11;;;;;;;7.13;2.20;;;9.00;74.80;;;;;;5023771;28;20541;-71
2024/02/07 05:24:38;;;;;;;1.83;1.50;;;9.00;74.80;;;;;;5032763;28;20781;-70
2024/02/07 05:27:06;;;;;;;4.20;2.67;;;9.00;74.80;;;;;;5033700;28;20430;-70
2024/02/07 05:29:35;;;;;;;4.40;2.93;;;9.00;74.80;;;;;;5029515;28;20916;-71
2024/02/07 05:32:00;;;;;;;5.83;1.93;;;9.00;74.90;;;;;;5026186;28;20463;-70
2024/02/07 05:34:26;;;;;;;12.43;2.70;;;9.00;74.90;;;;;;5032507;28;20566;-69
2024/02/07 05:36:51;;;;;;;4.87;2.43;;;8.90;74.90;;;;;;5032747;28;20219;-70
2024/02/07 05:39:17;;;;;;;3.83;2.50;;;8.90;75.10;;;;;;5032713;28;20196;-68
2024/02/07 05:41:45;;;;;;;5.13;2.67;;;8.90;75.10;;;;;;5026586;28;20265;-69
2024/02/07 05:44:12;;;;;;;4.20;2.40;;;8.90;75.10;;;;;;5024886;28;20185;-68
2024/02/07 05:46:37;;;;;;;5.33;2.40;;;8.90;75.20;;;;;;5032816;28;20515;-69
2024/02/07 05:49:03;;;;;;;5.90;2.73;;;8.90;75.10;;;;;;5031646;28;20518;-70
2024/02/07 05:51:29;;;;;;;5.33;3.00;;;8.90;75.10;;;;;;5031458;28;20220;-71
2024/02/07 05:53:54;;;;;;;4.23;3.00;;;8.90;75.10;;;;;;5032101;28;20220;-70
2024/02/07 05:56:20;;;;;;;6.07;3.03;;;8.90;75.10;;;;;;5034962;28;20228;-71
2024/02/07 05:58:49;;;;;;;5.33;2.20;;;9.00;75.10;;;;;;5036881;28;20654;-69
2024/02/07 06:01:15;;;;;;;3.10;2.03;;;8.90;75.10;;;;;;5019387;28;20538;-69
2024/02/07 06:03:41;;;;;;;5.47;2.23;;;9.00;75.10;;;;;;5034723;28;20825;-69
2024/02/07 06:06:07;;;;;;;6.20;2.43;;;9.00;75.10;;;;;;5033180;28;20435;-69
2024/02/07 06:08:33;;;;;;;6.10;2.90;;;9.00;75.10;;;;;;5032909;28;20437;-69
2024/02/07 06:10:59;;;;;;;9.90;2.40;;;8.90;75.10;;;;;;5023424;28;20648;-70
2024/02/07 06:13:25;;;;;;;4.40;2.43;;;9.00;75.10;;;;;;5023886;28;20217;-69
2024/02/07 06:15:50;;;;;;;4.97;2.50;;;9.00;74.90;;;;;;5030469;28;20499;-70
2024/02/07 06:18:19;;;;;;;9.30;2.37;;;9.00;75.10;;;;;;5031938;28;20646;-71
2024/02/07 06:20:44;;;;;;;4.87;2.63;;;9.00;75.10;;;;;;5027174;28;20834;-70
2024/02/07 06:23:10;;;;;;;6.07;2.97;;;9.00;75.20;;;;;;5026324;28;20458;-71
2024/02/07 06:25:36;;;;;;;12.60;3.00;;;9.00;75.20;;;;;;5032658;28;20185;-71
2024/02/07 06:28:01;;;;;;;7.93;2.63;;;9.00;75.20;;;;;;5030992;28;20276;-69
2024/02/07 06:30:27;;;;;;;5.40;3.07;;;9.00;75.40;;;;;;5027378;28;20213;-69
2024/02/07 06:32:53;;;;;;;10.53;2.03;;;9.00;75.40;;;;;;5023837;28;20292;-68
2024/02/07 06:35:18;;;;;;;5.13;3.53;;;9.00;75.40;;;;;;5032300;28;20531;-70
2024/02/07 06:37:44;;;;;;;5.00;2.60;;;9.00;75.40;;;;;;5032755;28;20197;-69
2024/02/07 06:40:11;;;;;;;5.80;2.90;;;9.00;75.20;;;;;;5029586;28;20185;-70
2024/02/07 06:42:36;;;;;;;5.47;2.77;;;9.00;74.90;;;;;;5029842;28;20424;-69
2024/02/07 06:45:03;;;;;;;4.80;3.03;;;9.10;74.90;;;;;;5033104;28;20990;-70
2024/02/07 06:47:29;;;;;;;7.53;2.70;;;9.10;74.80;;;;;;5033779;28;20196;-69
2024/02/07 06:49:54;;;;;;;6.60;3.83;;;9.10;74.50;;;;;;5030555;28;20420;-71
2024/02/07 06:52:20;;;;;;;4.70;2.77;;;9.20;74.50;;;;;;5025977;28;20278;-70
2024/02/07 06:54:46;;;;;;;7.50;3.03;;;9.10;74.50;;;;;;5030545;28;20220;-70
2024/02/07 06:57:11;;;;;;;6.97;3.50;;;9.20;74.20;;;;;;5033577;28;20225;-71
2024/02/07 06:59:37;;;;;;;7.00;2.43;;;9.30;74.00;;;;;;5033560;28;20440;-69
2024/02/07 07:02:03;;;;;;;10.83;2.90;;;9.30;73.90;;;;;;5024182;28;20244;-70
2024/02/07 07:04:28;;;;;;;7.40;3.50;;;9.30;73.60;;;;;;5028906;28;20185;-71
2024/02/07 07:06:54;;;;;;;8.97;3.33;;;9.30;73.60;;;;;;5031222;28;20190;-71
2024/02/07 07:09:19;;;;;;;5.53;2.47;;;9.40;73.60;;;;;;5032128;28;20227;-70
2024/02/07 07:11:45;;;;;;;5.90;3.23;;;9.40;73.30;;;;;;5026010;28;20209;-69
2024/02/07 07:14:11;;;;;;;5.57;2.07;;;9.40;73.30;;;;;;5029234;28;20235;-70
2024/02/07 07:16:36;;;;;;;6.23;3.00;;;9.50;73.20;;;;;;5029304;28;20247;-70
2024/02/07 07:19:02;;;;;;;38.07;6.50;;;9.40;73.20;;;;;;5033363;28;20219;-69
2024/02/07 07:21:28;;;;;;;5.77;3.00;;;9.50;73.20;;;;;;5026751;28;20220;-69
2024/02/07 07:23:54;;;;;;;8.67;2.30;;;9.50;73.00;;;;;;5029020;28;20181;-68
2024/02/07 07:26:19;;;;;;;7.10;3.27;;;9.50;73.00;;;;;;5032657;28;20420;-68
2024/02/07 07:28:45;;;;;;;5.23;2.80;;;9.50;73.00;;;;;;5025001;28;20189;-71
2024/02/07 07:31:11;;;;;;;15.47;4.00;;;9.50;72.90;;;;;;5026690;28;20222;-69
2024/02/07 07:33:36;;;;;;;12.30;4.00;;;9.50;72.70;;;;;;5031095;28;20306;-67
2024/02/07 07:36:02;;;;;;;22.80;4.10;;;9.50;72.60;;;;;;5035321;28;20646;-70
2024/02/07 07:38:28;;;;;;;5.40;2.33;;;9.60;72.40;;;;;;5035854;28;20189;-69
2024/02/07 07:40:55;;;;;;;4.97;2.40;;;9.60;72.40;;;;;;5023363;28;20253;-69
2024/02/07 07:43:20;;;;;;;18.80;4.40;;;9.60;72.40;;;;;;5027912;28;20514;-69
2024/02/07 07:45:46;;;;;;;10.13;3.40;;;9.60;72.40;;;;;;5034655;28;20435;-70
2024/02/07 07:48:11;;;;;;;12.43;3.83;;;9.60;72.30;;;;;;5030154;28;20217;-69
2024/02/07 07:50:37;;;;;;;24.10;4.77;;;9.60;72.30;;;;;;5025119;28;20209;-70
2024/02/07 07:53:03;;;;;;;10.73;3.97;;;9.70;72.10;;;;;;5025542;28;20213;-69
2024/02/07 07:55:28;;;;;;;5.87;3.30;;;9.70;72.00;;;;;;5027940;28;20188;-71
2024/02/07 07:57:54;;;;;;;6.43;3.33;;;9.70;72.10;;;;;;5024204;28;20187;-69
2024/02/07 08:00:20;;;;;;;10.87;3.00;;;9.70;72.00;;;;;;5027950;28;20701;-69
2024/02/07 08:02:46;;;;;;;7.40;2.50;;;9.80;71.80;;;;;;5029916;28;20439;-69
2024/02/07 08:05:11;;;;;;;6.43;3.33;;;9.80;71.80;;;;;;5028859;28;20635;-70
2024/02/07 08:07:37;;;;;;;7.70;3.10;;;9.80;71.70;;;;;;5034990;28;20215;-69
2024/02/07 08:10:02;;;;;;;6.37;3.10;;;9.80;71.80;;;;;;5030431;28;20642;-69
2024/02/07 08:12:28;;;;;;;7.03;3.40;;;9.80;71.70;;;;;;5027426;28;20606;-71
2024/02/07 08:14:54;;;;;;;8.93;3.13;;;9.90;71.70;;;;;;5024797;28;20177;-69
2024/02/07 08:17:19;;;;;;;5.23;2.90;;;9.90;71.70;;;;;;5037408;28;20208;-69
2024/02/07 08:19:46;;;;;;;6.30;3.03;;;9.90;71.70;;;;;;5039264;28;20668;-71
2024/02/07 08:22:12;;;;;;;7.40;3.40;;;9.90;71.70;;;;;;5030227;28;20216;-72
2024/02/07 08:24:38;;;;;;;6.83;2.70;;;9.90;71.70;;;;;;5030114;28;21040;-69
2024/02/07 08:27:04;;;;;;;6.37;2.70;;;10.00;71.60;;;;;;5032247;28;20507;-70
2024/02/07 08:29:30;;;;;;;9.83;3.60;;;10.00;71.60;;;;;;5032274;28;20181;-70
2024/02/07 08:31:58;;;;;;;7.83;3.73;;;10.00;71.60;;;;;;5025267;28;20502;-71
2024/02/07 08:34:24;;;;;;;8.80;3.30;;;10.00;71.60;;;;;;5029449;28;20267;-69
2024/02/07 08:36:50;;;;;;;10.77;3.80;;;10.00;71.60;;;;;;5035203;28;20423;-71
2024/02/07 08:39:16;;;;;;;7.73;3.17;;;10.00;71.60;;;;;;5034612;28;20652;-70
2024/02/07 08:41:42;;;;;;;7.87;3.33;;;10.00;71.60;;;;;;5021450;28;20220;-71
2024/02/07 08:44:07;;;;;;;15.60;3.10;;;10.00;71.70;;;;;;5029623;28;20440;-72
2024/02/07 08:46:33;;;;;;;9.10;4.23;;;10.00;71.70;;;;;;5034562;28;20235;-70
2024/02/07 08:48:59;;;;;;;7.10;3.10;;;10.10;71.70;;;;;;5033801;28;20570;-71
2024/02/07 08:51:24;;;;;;;9.10;3.77;;;10.10;71.70;;;;;;5026066;28;20258;-69
2024/02/07 08:53:50;;;;;;;9.73;3.83;;;10.00;71.80;;;;;;5029735;28;20228;-71
2024/02/07 08:56:16;;;;;;;11.87;3.47;;;10.00;71.80;;;;;;5034255;28;20193;-70
2024/02/07 08:58:41;;;;;;;8.43;3.20;;;10.00;72.00;;;;;;5034248;28;20196;-71
2024/02/07 09:01:10;;;;;;;7.53;3.17;;;10.10;72.00;;;;;;5028084;28;20220;-71
2024/02/07 09:03:36;;;;;;;3.73;2.70;;;10.00;72.00;;;;;;5031056;28;20216;-69
2024/02/07 09:06:02;;;;;;;4.77;2.37;;;10.00;72.10;;;;;;5033250;28;20463;-70
2024/02/07 09:08:28;;;;;;;10.43;3.43;;;10.10;72.10;;;;;;5033456;28;20936;-70
2024/02/07 09:10:56;;;;;;;23.80;5.33;;;10.10;72.30;;;;;;5028674;28;20458;-71
2024/02/07 09:13:21;;;;;;;6.57;2.97;;;10.00;72.40;;;;;;5032498;28;20212;-71
2024/02/07 09:15:47;;;;;;;12.43;3.83;;;10.10;72.40;;;;;;5033088;28;20427;-71
2024/02/07 09:18:12;;;;;;;10.27;3.07;;;10.10;72.40;;;;;;5028794;28;20185;-71
2024/02/07 09:20:38;;;;;;;13.07;3.80;;;10.10;72.30;;;;;;5030803;28;20194;-71
2024/02/07 09:23:04;;;;;;;7.37;2.93;;;10.10;72.40;;;;;;5031119;28;20662;-70
2024/02/07 09:25:29;;;;;;;9.53;3.17;;;10.20;72.30;;;;;;5031754;28;20220;-70
2024/02/07 09:27:57;;;;;;;10.07;4.03;;;10.10;72.40;;;;;;5033875;28;20181;-69
2024/02/07 09:30:23;;;;;;;5.87;3.17;;;10.10;72.60;;;;;;5028213;28;20287;-70
2024/02/07 09:32:48;;;;;;;7.33;2.87;;;10.10;72.70;;;;;;5027718;28;20797;-71
2024/02/07 09:35:14;;;;;;;15.53;5.13;;;10.10;72.70;;;;;;5031585;28;20193;-69
2024/02/07 09:37:41;;;;;;;11.67;3.67;;;10.10;72.90;;;;;;5034418;28;20196;-70
2024/02/07 09:40:07;;;;;;;7.97;3.70;;;10.20;72.90;;;;;;5031268;28;20261;-71
2024/02/07 09:42:37;;;;;;;9.10;3.67;;;10.20;72.70;;;;;;5023958;28;20428;-69
2024/02/07 09:45:04;;;;;;;11.53;3.40;;;10.20;72.70;;;;;;5027877;28;20505;-70
2024/02/07 09:47:35;;;;;;;17.33;4.40;;;10.20;72.90;;;;;;5032770;28;20515;-69
2024/02/07 09:50:02;;;;;;;14.00;4.47;;;10.20;72.90;;;;;;5031195;28;20486;-69
2024/02/07 09:52:29;;;;;;;15.10;3.73;;;10.20;72.90;;;;;;5019839;28;20908;-71
2024/02/07 09:54:56;;;;;;;5.97;2.93;;;10.20;72.90;;;;;;5030096;28;20497;-69
2024/02/07 09:57:25;;;;;;;10.30;3.90;;;10.20;72.90;;;;;;5032440;28;20451;-71
2024/02/07 09:59:52;;;;;;;14.60;3.53;;;10.20;72.90;;;;;;5032596;28;20485;-70
2024/02/07 10:02:19;;;;;;;10.33;2.63;;;10.30;72.70;;;;;;5024249;28;20462;-70
2024/02/07 10:04:52;;;;;;;10.10;3.50;;;10.30;72.40;;;;;;5033787;28;20427;-71
2024/02/07 10:07:19;;;;;;;6.57;3.43;;;10.30;72.60;;;;;;5035477;28;20443;-71
2024/02/07 10:09:48;;;;;;;5.07;3.30;;;10.30;72.60;;;;;;5033865;28;20565;-71
2024/02/07 10:12:15;;;;;;;7.73;3.60;;;10.40;72.30;;;;;;5028513;28;20471;-71
2024/02/07 10:14:42;;;;;;;9.97;3.27;;;10.40;72.40;;;;;;5033340;28;20472;-72
2024/02/07 10:17:08;;;;;;;6.43;3.33;;;10.40;72.10;;;;;;5034525;28;20494;-70
2024/02/07 10:19:35;;;;;;;12.57;3.67;;;10.40;72.10;;;;;;5032088;28;21066;-70
2024/02/07 10:22:00;;;;;;;8.77;2.83;;;10.40;72.00;;;;;;5020943;28;20297;-70
2024/02/07 10:24:29;;;;;;;7.03;2.30;;;10.50;72.00;;;;;;5031841;28;20424;-69
2024/02/07 10:26:56;;;;;;;6.50;3.00;;;10.50;71.80;;;;;;5028242;28;20268;-70
2024/02/07 10:29:22;;;;;;;10.80;3.77;;;10.50;72.00;;;;;;5031705;28;20416;-68
2024/02/07 10:31:54;;;;;;;6.23;3.00;;;10.50;71.80;;;;;;5025652;28;20463;-70
2024/02/07 10:34:20;;;;;;;7.60;3.17;;;10.50;71.70;;;;;;5031096;28;20486;-70
2024/02/07 10:36:46;;;;;;;5.70;2.40;;;10.60;71.80;;;;;;5032080;28;20778;-70
2024/02/07 10:39:12;;;;;;;5.83;3.30;;;10.60;71.70;;;;;;5031690;28;20462;-69
2024/02/07 10:41:38;;;;;;;11.83;2.87;;;10.60;71.80;;;;;;5027785;28;20217;-70
2024/02/07 10:44:07;;;;;;;7.73;2.47;;;10.70;71.60;;;;;;5023297;28;20432;-69
2024/02/07 10:46:33;;;;;;;5.30;2.80;;;10.60;71.70;;;;;;5031423;28;20192;-70
2024/02/07 10:49:00;;;;;;;5.43;2.50;;;10.60;72.00;;;;;;5032015;28;20796;-71
2024/02/07 10:51:30;;;;;;;4.10;2.73;;;10.60;71.70;;;;;;5026054;28;20448;-70
2024/02/07 10:54:03;;;;;;;5.00;2.30;;;10.60;71.80;;;;;;5027742;28;20936;-71
2024/02/07 10:56:37;;;;;;;4.20;2.60;;;10.60;71.80;;;;;;5031687;28;20486;-70
2024/02/07 10:59:04;;;;;;;4.83;2.47;;;10.60;72.10;;;;;;5032258;28;20483;-71
2024/02/07 11:01:31;;;;;;;3.50;2.33;;;10.70;71.80;;;;;;5023610;28;20529;-69
2024/02/07 11:03:57;;;;;;;5.17;2.20;;;10.70;71.70;;;;;;5024105;28;20440;-69
2024/02/07 11:06:26;;;;;;;6.50;3.30;;;10.60;72.10;;;;;;5030944;28;20531;-70
2024/02/07 11:08:56;;;;;;;4.47;2.77;;;10.60;72.30;;;;;;5030742;28;20499;-70
2024/02/07 11:11:25;;;;;;;5.67;2.60;;;10.60;72.40;;;;;;5026187;28;20799;-70
2024/02/07 11:13:56;;;;;;;3.03;1.70;;;10.60;72.40;;;;;;5026523;28;20482;-70
2024/02/07 11:16:22;;;;;;;4.23;2.50;;;10.60;72.70;;;;;;5030415;28;20428;-69
2024/02/07 11:18:48;;;;;;;4.50;2.47;;;10.60;72.40;;;;;;5033161;28;20434;-69
2024/02/07 11:21:20;;;;;;;4.50;2.27;;;10.60;72.40;;;;;;5025960;28;20908;-71
2024/02/07 11:23:48;;;;;;;2.57;1.90;;;10.70;72.10;;;;;;5029294;28;20592;-68
2024/02/07 11:26:15;;;;;;;6.53;3.30;;;10.70;72.10;;;;;;5035417;28;20428;-71
2024/02/07 11:28:41;;;;;;;4.03;2.33;;;10.70;72.10;;;;;;5033520;28;20436;-71
2024/02/07 11:31:07;;;;;;;3.87;1.80;;;10.70;72.00;;;;;;5024795;28;20468;-70
2024/02/07 11:33:36;;;;;;;3.57;2.00;;;10.70;72.00;;;;;;5029269;28;20486;-72
2024/02/07 11:36:18;;;;;;;7.30;2.70;;;10.80;72.00;;;;;;5031631;28;20412;-71
2024/02/07 11:38:48;;;;;;;7.40;2.83;;;10.80;72.00;;;;;;5031053;28;20415;-71
2024/02/07 11:41:18;;;;;;;5.50;3.13;;;11.00;71.40;;;;;;5021984;28;20996;-70
2024/02/07 11:43:44;;;;;;;4.80;2.70;;;11.00;71.40;;;;;;5030579;28;20428;-70
2024/02/07 11:46:12;;;;;;;5.83;2.80;;;11.00;71.40;;;;;;5032854;28;20458;-70
2024/02/07 11:48:39;;;;;;;5.23;1.90;;;11.00;71.10;;;;;;5033541;28;20334;-71
2024/02/07 11:51:09;;;;;;;4.97;2.43;;;11.10;70.80;;;;;;5025122;28;21363;-70
2024/02/07 11:53:39;;;;;;;4.73;2.37;;;11.10;70.70;;;;;;5025384;28;20475;-71
2024/02/07 11:56:20;;;;;;;5.07;2.17;;;11.10;70.50;;;;;;5028027;28;20420;-69
2024/02/07 11:58:49;;;;;;;10.90;1.90;;;11.20;70.10;;;;;;5030754;28;20427;-70
2024/02/07 12:01:16;;;;;;;4.90;2.57;;;11.20;69.90;;;;;;5025762;28;20483;-70
2024/02/07 12:03:42;;;;;;;7.57;2.53;;;11.20;70.10;;;;;;5026176;28;20419;-69
2024/02/07 12:06:11;;;;;;;5.20;2.40;;;11.30;69.90;;;;;;5036637;28;20482;-71
2024/02/07 12:08:38;;;;;;;5.63;2.37;;;11.40;69.80;;;;;;5035071;28;20428;-69
2024/02/07 12:11:10;;;;;;;2.60;1.93;;;11.60;69.40;;;;;;5028958;28;20490;-71
2024/02/07 12:13:36;;;;;;;5.80;2.60;;;11.80;68.50;;;;;;5022097;28;20951;-71
2024/02/07 12:16:03;;;;;;;4.73;2.00;;;11.70;68.60;;;;;;5032926;28;20420;-70
2024/02/07 12:18:29;;;;;;;6.07;2.30;;;11.60;68.90;;;;;;5029480;28;20189;-68
2024/02/07 12:21:02;;;;;;;5.23;2.30;;;11.60;69.10;;;;;;5022902;28;20503;-68
2024/02/07 12:23:32;;;;;;;4.30;2.00;;;11.70;68.80;;;;;;5023131;28;20419;-70
2024/02/07 12:26:02;;;;;;;7.40;2.37;;;11.80;68.50;;;;;;5029362;28;20452;-70
2024/02/07 12:28:28;;;;;;;19.50;2.73;;;11.90;68.20;;;;;;5030619;28;20416;-68
2024/02/07 12:30:58;;;;;;;5.73;1.83;;;12.00;68.00;;;;;;5022483;28;20453;-71
2024/02/07 12:33:25;;;;;;;4.47;2.03;;;12.10;67.90;;;;;;5025926;28;20472;-70
2024/02/07 12:35:51;;;;;;;2.00;1.23;;;12.00;67.70;;;;;;5030454;28;20424;-70
2024/02/07 12:38:18;;;;;;;20.63;3.03;;;11.80;67.90;;;;;;5028862;28;20424;-70
2024/02/07 12:40:49;;;;;;;3.83;1.87;;;11.80;68.30;;;;;;5023215;28;20452;-70
2024/02/07 12:43:22;;;;;;;2.87;2.13;;;11.70;68.30;;;;;;5027082;28;20439;-69
2024/02/07 12:45:54;;;;;;;4.27;1.97;;;11.50;68.60;;;;;;5026243;28;20863;-70
2024/02/07 12:48:22;;;;;;;12.47;2.20;;;11.60;68.90;;;;;;5031133;28;20428;-70
2024/02/07 12:50:47;;;;;;;3.77;1.80;;;11.60;68.60;;;;;;5021805;28;20487;-69
2024/02/07 12:53:13;;;;;;;11.60;2.33;;;11.60;68.80;;;;;;5028284;28;20992;-72
2024/02/07 12:55:39;;;;;;;3.80;1.43;;;11.50;69.40;;;;;;5029113;28;21026;-69
2024/02/07 12:58:05;;;;;;;4.43;1.17;;;11.50;68.90;;;;;;5023574;28;20425;-69
2024/02/07 13:00:32;;;;;;;1.90;1.40;;;11.50;69.10;;;;;;5022439;28;20539;-68
2024/02/07 13:02:58;;;;;;;4.60;2.27;;;11.40;69.70;;;;;;5029658;28;20446;-70
2024/02/07 13:05:23;;;;;;;2.20;1.57;;;11.30;70.10;;;;;;5028434;28;20416;-71
2024/02/07 13:07:50;;;;;;;2.90;1.77;;;11.50;69.80;;;;;;5029960;28;20446;-70
2024/02/07 13:10:16;;;;;;;5.43;1.80;;;11.50;69.70;;;;;;5025944;28;20213;-70
2024/02/07 13:12:42;;;;;;;4.43;1.93;;;11.40;69.70;;;;;;5024420;28;20423;-70
2024/02/07 13:15:08;;;;;;;1.93;1.40;;;11.30;69.90;;;;;;5024928;28;20438;-68
2024/02/07 13:17:35;;;;;;;2.83;1.70;;;11.30;69.90;;;;;;5029779;28;20181;-69
2024/02/07 13:20:03;;;;;;;5.50;2.63;;;11.40;69.80;;;;;;5025599;28;20224;-68
2024/02/07 13:22:29;;;;;;;5.23;1.67;;;11.40;69.80;;;;;;5025992;28;20439;-70
2024/02/07 13:24:55;;;;;;;3.90;1.83;;;11.40;69.80;;;;;;5029115;28;20416;-70
2024/02/07 13:27:21;;;;;;;4.47;1.77;;;11.40;69.80;;;;;;5029585;28;20438;-70
2024/02/07 13:29:46;;;;;;;2.17;1.23;;;11.60;69.50;;;;;;5029749;28;20212;-69
2024/02/07 13:32:13;;;;;;;2.47;1.57;;;11.70;68.90;;;;;;5019774;28;20201;-70
2024/02/07 13:34:41;;;;;;;4.70;1.70;;;11.60;68.90;;;;;;5029671;28;20225;-68
2024/02/07 13:37:07;;;;;;;4.50;1.90;;;11.40;69.50;;;;;;5033943;28;20423;-70
2024/02/07 13:39:32;;;;;;;4.43;1.93;;;11.40;69.50;;;;;;5033405;28;20440;-70
2024/02/07 13:41:58;;;;;;;3.73;1.93;;;11.40;69.50;;;;;;5020791;28;20324;-70
2024/02/07 13:44:24;;;;;;;6.20;2.30;;;11.40;69.80;;;;;;5030814;28;20231;-71
2024/02/07 13:46:49;;;;;;;3.90;1.77;;;11.30;69.80;;;;;;5030332;28;20201;-71
2024/02/07 13:49:15;;;;;;;6.93;1.97;;;11.30;69.70;;;;;;5032391;28;20250;-70
2024/02/07 13:51:41;;;;;;;5.80;2.30;;;11.30;69.40;;;;;;5023879;28;20564;-69
2024/02/07 13:54:07;;;;;;;5.30;1.80;;;11.20;69.70;;;;;;5031270;28;20225;-72
2024/02/07 13:56:33;;;;;;;3.63;2.23;;;11.20;69.80;;;;;;5032235;28;20357;-70